Time,TemperatureF,DewpointF,PressureIn,WindDirection,WindDirectionDegrees,WindSpeedMPH,WindSpeedGustMPH,Humidity,HourlyPrecipIn,Conditions,Clouds,dailyrainin,SoftwareType,DateUTC
2017-03-25 00:00:00,38.3,33.6,30.14,SE,125,10.0,10.0,83,0.00,,BKN018,0.00,VWS V15.00,2017-03-25 05:00:00,
2017-03-25 00:05:00,38.2,33.5,30.14,NE,51,5.0,12.0,83,0.00,,BKN018,0.00,VWS V15.00,2017-03-25 05:05:00,
2017-03-25 00:10:00,38.2,33.5,30.14,ENE,57,1.0,12.0,83,0.00,,BKN018,0.00,VWS V15.00,2017-03-25 05:10:00,
2017-03-25 00:15:00,38.2,33.5,30.14,ENE,60,0.0,12.0,83,0.00,,BKN018,0.00,VWS V15.00,2017-03-25 05:15:00,
2017-03-25 00:20:00,38.0,33.3,30.14,NE,51,9.0,12.0,83,0.00,,BKN018,0.00,VWS V15.00,2017-03-25 05:20:00,
2017-03-25 00:25:00,38.0,33.3,30.14,NE,53,3.0,12.0,83,0.00,,BKN018,0.00,VWS V15.00,2017-03-25 05:25:00,
2017-03-25 00:30:00,38.0,33.3,30.14,ENE,68,3.0,6.0,83,0.00,,BKN018,0.00,VWS V15.00,2017-03-25 05:30:00,
2017-03-25 00:35:00,38.0,33.3,30.14,ENE,64,2.0,10.0,83,0.00,,BKN018,0.00,VWS V15.00,2017-03-25 05:35:00,
2017-03-25 00:40:00,38.0,33.3,30.14,NE,50,5.0,10.0,83,0.00,,BKN018,0.00,VWS V15.00,2017-03-25 05:40:00,
2017-03-25 00:45:00,38.0,33.3,30.15,NE,51,7.0,10.0,83,0.00,,BKN018,0.00,VWS V15.00,2017-03-25 05:45:00,
2017-03-25 00:50:00,38.0,33.0,30.15,NE,54,5.0,10.0,82,0.00,,BKN018,0.00,VWS V15.00,2017-03-25 05:50:00,
2017-03-25 00:55:00,37.9,32.9,30.15,NE,47,0.0,10.0,82,0.00,,BKN018,0.00,VWS V15.00,2017-03-25 05:55:00,
2017-03-25 01:00:00,37.9,32.9,30.14,ENE,64,2.0,7.0,82,0.00,,BKN018,0.00,VWS V15.00,2017-03-25 06:00:00,
2017-03-25 01:05:00,37.9,33.2,30.14,NE,53,5.0,7.0,83,0.00,,BKN018,0.00,VWS V15.00,2017-03-25 06:05:00,
2017-03-25 01:10:00,37.9,33.2,30.14,NE,48,6.0,13.0,83,0.00,,BKN018,0.00,VWS V15.00,2017-03-25 06:10:00,
2017-03-25 01:16:00,37.9,33.2,30.13,NE,40,6.0,13.0,83,0.00,,BKN018,0.00,VWS V15.00,2017-03-25 06:16:00,
2017-03-25 01:21:00,37.9,33.2,30.13,NE,50,8.0,15.0,83,0.00,,BKN018,0.00,VWS V15.00,2017-03-25 06:21:00,
2017-03-25 01:26:00,37.9,33.2,30.13,NE,48,0.0,15.0,83,0.00,,BKN018,0.00,VWS V15.00,2017-03-25 06:26:00,
2017-03-25 01:31:00,37.8,33.1,30.12,NE,46,7.0,10.0,83,0.00,,BKN018,0.00,VWS V15.00,2017-03-25 06:31:00,
2017-03-25 01:36:00,37.8,33.1,30.12,NE,37,6.0,12.0,83,0.00,,BKN018,0.00,VWS V15.00,2017-03-25 06:36:00,
2017-03-25 01:41:00,37.8,33.1,30.12,NE,48,5.0,13.0,83,0.00,,BKN018,0.00,VWS V15.00,2017-03-25 06:41:00,
2017-03-25 01:46:00,37.9,33.2,30.14,NE,51,1.0,13.0,83,0.00,,BKN018,0.00,VWS V15.00,2017-03-25 06:46:00,
2017-03-25 01:51:00,37.9,32.9,30.14,NE,54,6.0,13.0,82,0.00,,BKN018,0.00,VWS V15.00,2017-03-25 06:51:00,
2017-03-25 01:56:00,37.9,32.9,30.14,NE,34,7.0,13.0,82,0.00,,BKN018,0.00,VWS V15.00,2017-03-25 06:56:00,
2017-03-25 02:01:00,37.9,32.9,30.14,NE,47,11.0,11.0,82,0.00,,BKN018,0.00,VWS V15.00,2017-03-25 07:01:00,
2017-03-25 02:06:00,37.9,32.9,30.14,NE,43,6.0,11.0,82,0.00,,BKN018,0.00,VWS V15.00,2017-03-25 07:06:00,
2017-03-25 02:11:00,37.8,32.8,30.14,NE,40,3.0,11.0,82,0.00,,BKN018,0.00,VWS V15.00,2017-03-25 07:11:00,
2017-03-25 02:16:00,37.8,32.8,30.14,NE,48,10.0,14.0,82,0.00,,BKN018,0.00,VWS V15.00,2017-03-25 07:16:00,
2017-03-25 02:21:00,37.6,32.6,30.14,NE,38,6.0,17.0,82,0.00,,BKN018,0.00,VWS V15.00,2017-03-25 07:21:00,
2017-03-25 02:23:00,37.6,32.6,30.14,NE,46,6.0,17.0,82,0.00,,BKN018,0.00,VWS V15.00,2017-03-25 07:23:00,
2017-03-25 02:29:00,37.6,32.6,30.14,NE,47,7.0,17.0,82,0.00,,BKN018,0.00,VWS V15.00,2017-03-25 07:29:00,
2017-03-25 02:34:00,37.6,32.6,30.14,NE,41,5.0,16.0,82,0.00,,BKN018,0.00,VWS V15.00,2017-03-25 07:34:00,
2017-03-25 02:39:00,37.6,32.6,30.14,NE,50,3.0,16.0,82,0.00,,BKN018,0.00,VWS V15.00,2017-03-25 07:39:00,
2017-03-25 02:44:00,37.5,32.5,30.14,ENE,62,3.0,16.0,82,0.00,,BKN018,0.00,VWS V15.00,2017-03-25 07:44:00,
2017-03-25 02:49:00,37.5,32.5,30.14,ENE,58,4.0,16.0,82,0.00,,BKN018,0.00,VWS V15.00,2017-03-25 07:49:00,
2017-03-25 02:54:00,37.5,32.5,30.14,ENE,70,8.0,16.0,82,0.00,,BKN018,0.00,VWS V15.00,2017-03-25 07:54:00,
2017-03-25 02:59:00,37.5,32.5,30.14,ENE,70,6.0,16.0,82,0.00,,BKN018,0.00,VWS V15.00,2017-03-25 07:59:00,
2017-03-25 03:04:00,37.5,32.5,30.12,NE,36,9.0,14.0,82,0.00,,BKN018,0.00,VWS V15.00,2017-03-25 08:04:00,
2017-03-25 03:09:00,37.3,32.3,30.12,NE,54,8.0,14.0,82,0.00,,BKN018,0.00,VWS V15.00,2017-03-25 08:09:00,
2017-03-25 03:14:00,37.3,32.3,30.12,NE,37,8.0,14.0,82,0.00,,BKN018,0.00,VWS V15.00,2017-03-25 08:14:00,
2017-03-25 03:19:00,37.3,32.3,30.12,NE,38,1.0,14.0,82,0.00,,BKN018,0.00,VWS V15.00,2017-03-25 08:19:00,
2017-03-25 03:24:00,37.3,32.3,30.12,NE,48,6.0,14.0,82,0.00,,BKN018,0.00,VWS V15.00,2017-03-25 08:24:00,
2017-03-25 03:29:00,37.2,32.2,30.11,NE,55,10.0,14.0,82,0.00,,BKN018,0.00,VWS V15.00,2017-03-25 08:29:00,
2017-03-25 03:34:00,37.2,32.2,30.11,NE,38,6.0,11.0,82,0.00,,BKN018,0.00,VWS V15.00,2017-03-25 08:34:00,
2017-03-25 03:39:00,37.2,32.2,30.11,ENE,57,10.0,13.0,82,0.00,,BKN018,0.00,VWS V15.00,2017-03-25 08:39:00,
2017-03-25 03:44:00,37.2,32.2,30.12,NE,53,3.0,13.0,82,0.00,,BKN018,0.00,VWS V15.00,2017-03-25 08:44:00,
2017-03-25 03:49:00,37.2,32.2,30.12,NE,51,5.0,13.0,82,0.00,,BKN018,0.00,VWS V15.00,2017-03-25 08:49:00,
2017-03-25 03:54:00,37.2,32.2,30.12,NE,50,7.0,16.0,82,0.00,,BKN018,0.00,VWS V15.00,2017-03-25 08:54:00,
2017-03-25 03:59:00,37.2,32.2,30.12,NE,54,6.0,16.0,82,0.00,,BKN018,0.00,VWS V15.00,2017-03-25 08:59:00,
2017-03-25 04:04:00,37.2,32.2,30.12,ENE,57,11.0,17.0,82,0.00,,BKN018,0.00,VWS V15.00,2017-03-25 09:04:00,
2017-03-25 04:09:00,37.2,32.2,30.12,NE,51,6.0,17.0,82,0.00,,BKN018,0.00,VWS V15.00,2017-03-25 09:09:00,
2017-03-25 04:14:00,37.2,32.2,30.12,NE,53,11.0,17.0,82,0.00,,BKN018,0.00,VWS V15.00,2017-03-25 09:14:00,
2017-03-25 04:19:00,37.0,32.0,30.12,NE,46,7.0,17.0,82,0.00,,BKN018,0.00,VWS V15.00,2017-03-25 09:19:00,
2017-03-25 04:24:00,37.0,32.0,30.12,NE,38,5.0,17.0,82,0.00,,BKN018,0.00,VWS V15.00,2017-03-25 09:24:00,
2017-03-25 04:29:00,37.0,32.0,30.12,NE,51,5.0,17.0,82,0.00,,BKN018,0.00,VWS V15.00,2017-03-25 09:29:00,
2017-03-25 04:34:00,37.0,32.0,30.12,NE,54,7.0,14.0,82,0.00,,BKN018,0.00,VWS V15.00,2017-03-25 09:34:00,
2017-03-25 04:39:00,37.0,32.0,30.12,NE,53,10.0,14.0,82,0.00,,BKN018,0.00,VWS V15.00,2017-03-25 09:39:00,
2017-03-25 04:44:00,37.0,32.0,30.12,NE,53,11.0,14.0,82,0.00,,BKN018,0.00,VWS V15.00,2017-03-25 09:44:00,
2017-03-25 04:49:00,37.0,32.0,30.12,NE,54,7.0,16.0,82,0.00,,BKN018,0.00,VWS V15.00,2017-03-25 09:49:00,
2017-03-25 04:54:00,37.0,32.0,30.12,NE,37,7.0,16.0,82,0.00,,BKN018,0.00,VWS V15.00,2017-03-25 09:54:00,
2017-03-25 04:59:00,37.0,32.0,30.11,NE,46,8.0,16.0,82,0.00,,BKN018,0.00,VWS V15.00,2017-03-25 09:59:00,
2017-03-25 05:04:00,37.0,32.0,30.11,NE,54,8.0,13.0,82,0.00,,BKN018,0.00,VWS V15.00,2017-03-25 10:04:00,
2017-03-25 05:09:00,36.9,31.9,30.11,NE,54,12.0,13.0,82,0.00,,BKN018,0.00,VWS V15.00,2017-03-25 10:09:00,
2017-03-25 05:15:00,36.9,31.9,30.11,ENE,58,12.0,16.0,82,0.00,,BKN018,0.00,VWS V15.00,2017-03-25 10:15:00,
2017-03-25 05:20:00,36.9,31.9,30.11,NE,40,8.0,18.0,82,0.00,,BKN018,0.00,VWS V15.00,2017-03-25 10:20:00,
2017-03-25 05:25:00,36.9,31.9,30.11,NE,48,6.0,18.0,82,0.00,,BKN018,0.00,VWS V15.00,2017-03-25 10:25:00,
2017-03-25 05:30:00,36.9,31.9,30.12,NE,51,17.0,18.0,82,0.00,,BKN018,0.00,VWS V15.00,2017-03-25 10:30:00,
2017-03-25 05:35:00,36.9,31.9,30.12,ENE,68,7.0,17.0,82,0.00,,BKN018,0.00,VWS V15.00,2017-03-25 10:35:00,
2017-03-25 05:40:00,36.9,31.9,30.12,NE,54,9.0,17.0,82,0.00,,BKN018,0.00,VWS V15.00,2017-03-25 10:40:00,
2017-03-25 05:45:00,36.9,31.9,30.12,NE,48,4.0,17.0,82,0.00,,BKN018,0.00,VWS V15.00,2017-03-25 10:45:00,
2017-03-25 05:50:00,36.9,31.9,30.12,NE,51,6.0,17.0,82,0.00,,BKN018,0.00,VWS V15.00,2017-03-25 10:50:00,
2017-03-25 05:55:00,36.9,31.9,30.12,NE,48,4.0,17.0,82,0.00,,BKN018,0.00,VWS V15.00,2017-03-25 10:55:00,
2017-03-25 06:00:00,36.8,31.8,30.13,ENE,57,10.0,10.0,82,0.00,,BKN018,0.00,VWS V15.00,2017-03-25 11:00:00,
2017-03-25 06:05:00,36.8,31.8,30.13,ENE,57,10.0,16.0,82,0.00,,BKN018,0.00,VWS V15.00,2017-03-25 11:05:00,
2017-03-25 06:10:00,36.8,31.8,30.13,NE,46,5.0,16.0,82,0.00,,BKN018,0.00,VWS V15.00,2017-03-25 11:10:00,
2017-03-25 06:15:00,36.8,31.8,30.13,NE,53,8.0,16.0,82,0.00,,BKN018,0.00,VWS V15.00,2017-03-25 11:15:00,
2017-03-25 06:20:00,36.8,31.8,30.13,ENE,61,0.0,16.0,82,0.00,,BKN018,0.00,VWS V15.00,2017-03-25 11:20:00,
2017-03-25 06:25:00,36.6,31.6,30.13,NE,46,10.0,17.0,82,0.00,,BKN018,0.00,VWS V15.00,2017-03-25 11:25:00,
2017-03-25 06:30:00,36.6,31.6,30.13,NE,43,7.0,8.0,82,0.00,,BKN018,0.00,VWS V15.00,2017-03-25 11:30:00,
2017-03-25 06:35:00,36.6,31.6,30.13,NE,48,14.0,17.0,82,0.00,,BKN018,0.00,VWS V15.00,2017-03-25 11:35:00,
2017-03-25 06:40:00,36.6,31.6,30.13,ENE,61,12.0,17.0,82,0.00,,BKN018,0.00,VWS V15.00,2017-03-25 11:40:00,
2017-03-25 06:45:00,36.6,31.6,30.13,ENE,71,4.0,17.0,82,0.00,,BKN018,0.00,VWS V15.00,2017-03-25 11:45:00,
2017-03-25 06:50:00,36.6,31.6,30.13,NE,53,3.0,17.0,82,0.00,,BKN018,0.00,VWS V15.00,2017-03-25 11:50:00,
2017-03-25 06:55:00,36.6,31.6,30.13,NE,47,11.0,17.0,82,0.00,,BKN018,0.00,VWS V15.00,2017-03-25 11:55:00,
2017-03-25 07:00:00,36.6,31.6,30.13,ENE,57,11.0,11.0,82,0.00,,BKN018,0.00,VWS V15.00,2017-03-25 12:00:00,
2017-03-25 07:05:00,36.6,31.6,30.13,NE,54,11.0,16.0,82,0.00,,BKN018,0.00,VWS V15.00,2017-03-25 12:05:00,
2017-03-25 07:10:00,36.6,31.6,30.13,NE,51,8.0,16.0,82,0.00,,BKN018,0.00,VWS V15.00,2017-03-25 12:10:00,
2017-03-25 07:15:00,36.5,31.5,30.13,NE,51,14.0,16.0,82,0.00,,BKN018,0.00,VWS V15.00,2017-03-25 12:15:00,
2017-03-25 07:20:00,36.5,31.5,30.13,NE,54,5.0,16.0,82,0.00,,BKN018,0.00,VWS V15.00,2017-03-25 12:20:00,
2017-03-25 07:25:00,36.5,31.5,30.13,NE,51,6.0,16.0,82,0.00,,BKN018,0.00,VWS V15.00,2017-03-25 12:25:00,
2017-03-25 07:30:00,36.5,31.8,30.13,NE,48,7.0,7.0,83,0.00,,BKN018,0.00,VWS V15.00,2017-03-25 12:30:00,
2017-03-25 07:35:00,36.5,31.8,30.13,NE,50,6.0,13.0,83,0.00,,BKN018,0.00,VWS V15.00,2017-03-25 12:35:00,
2017-03-25 07:40:00,36.5,31.8,30.13,ENE,60,7.0,13.0,83,0.00,,BKN018,0.00,VWS V15.00,2017-03-25 12:40:00,
2017-03-25 07:45:00,36.5,31.8,30.13,ENE,57,7.0,14.0,83,0.00,,BKN018,0.00,VWS V15.00,2017-03-25 12:45:00,
2017-03-25 07:50:00,36.5,31.8,30.13,ESE,120,8.0,18.0,83,0.00,,BKN018,0.00,VWS V15.00,2017-03-25 12:50:00,
2017-03-25 07:55:00,36.5,31.8,30.13,NE,51,12.0,18.0,83,0.00,,BKN018,0.00,VWS V15.00,2017-03-25 12:55:00,
2017-03-25 08:00:00,36.3,31.6,30.14,NE,50,13.0,15.0,83,0.00,,BKN018,0.00,VWS V15.00,2017-03-25 13:00:00,
2017-03-25 08:05:00,36.3,31.6,30.14,ENE,71,10.0,16.0,83,0.00,,BKN018,0.00,VWS V15.00,2017-03-25 13:05:00,
2017-03-25 08:10:00,36.3,31.9,30.14,NE,54,7.0,16.0,84,0.00,,BKN018,0.00,VWS V15.00,2017-03-25 13:10:00,
2017-03-25 08:16:00,36.3,31.9,30.14,NE,53,9.0,16.0,84,0.00,,BKN018,0.00,VWS V15.00,2017-03-25 13:16:00,
2017-03-25 08:21:00,36.3,31.9,30.14,NE,46,13.0,19.0,84,0.00,,BKN018,0.00,VWS V15.00,2017-03-25 13:21:00,
2017-03-25 08:26:00,36.3,32.2,30.14,NE,50,3.0,19.0,85,0.00,,BKN018,0.00,VWS V15.00,2017-03-25 13:26:00,
2017-03-25 08:31:00,36.3,32.2,30.14,ENE,72,6.0,11.0,85,0.00,,BKN018,0.00,VWS V15.00,2017-03-25 13:31:00,
2017-03-25 08:36:00,36.3,32.2,30.14,NE,53,11.0,12.0,85,0.00,,BKN018,0.00,VWS V15.00,2017-03-25 13:36:00,
2017-03-25 08:41:00,36.3,32.2,30.14,ENE,65,3.0,12.0,85,0.00,,BKN018,0.00,VWS V15.00,2017-03-25 13:41:00,
2017-03-25 08:46:00,36.3,32.2,30.15,ENE,60,9.0,12.0,85,0.00,,BKN018,0.00,VWS V15.00,2017-03-25 13:46:00,
2017-03-25 08:51:00,36.3,32.5,30.15,ENE,57,10.0,13.0,86,0.00,,BKN018,0.00,VWS V15.00,2017-03-25 13:51:00,
2017-03-25 08:56:00,36.5,32.7,30.15,East,86,1.0,13.0,86,0.00,,BKN018,0.00,VWS V15.00,2017-03-25 13:56:00,
2017-03-25 09:01:00,36.5,32.4,30.15,NE,55,7.0,11.0,85,0.00,,BKN018,0.00,VWS V15.00,2017-03-25 14:01:00,
2017-03-25 09:06:00,36.5,32.4,30.15,ENE,75,6.0,12.0,85,0.00,,BKN018,0.00,VWS V15.00,2017-03-25 14:06:00,
2017-03-25 09:11:00,36.5,32.4,30.15,NE,50,2.0,16.0,85,0.00,,BKN018,0.00,VWS V15.00,2017-03-25 14:11:00,
2017-03-25 09:16:00,36.6,32.5,30.15,ENE,65,10.0,16.0,85,0.00,,BKN018,0.00,VWS V15.00,2017-03-25 14:16:00,
2017-03-25 09:21:00,36.8,32.7,30.15,ESE,105,17.0,19.0,85,0.00,,BKN018,0.00,VWS V15.00,2017-03-25 14:21:00,
2017-03-25 09:26:00,36.9,32.8,30.15,ENE,74,11.0,20.0,85,0.00,,BKN018,0.00,VWS V15.00,2017-03-25 14:26:00,
2017-03-25 09:31:00,36.9,32.5,30.15,ESE,113,8.0,11.0,84,0.00,,BKN018,0.00,VWS V15.00,2017-03-25 14:31:00,
2017-03-25 09:36:00,37.0,32.6,30.15,ENE,57,14.0,16.0,84,0.00,,BKN018,0.00,VWS V15.00,2017-03-25 14:36:00,
2017-03-25 09:41:00,37.2,32.8,30.15,ENE,61,5.0,16.0,84,0.00,,BKN018,0.00,VWS V15.00,2017-03-25 14:41:00,
2017-03-25 09:51:00,37.2,32.5,30.14,ENE,57,10.0,19.0,83,0.00,,BKN018,0.00,VWS V15.00,2017-03-25 14:51:00,
2017-03-25 09:56:00,37.3,32.6,30.14,NE,54,13.0,19.0,83,0.00,,BKN018,0.00,VWS V15.00,2017-03-25 14:56:00,
2017-03-25 10:01:00,37.3,32.6,30.14,NE,48,7.0,13.0,83,0.00,,BKN018,0.00,VWS V15.00,2017-03-25 15:01:00,
2017-03-25 10:06:00,37.6,32.9,30.14,ENE,64,7.0,14.0,83,0.00,,BKN018,0.00,VWS V15.00,2017-03-25 15:06:00,
2017-03-25 10:11:00,37.8,32.8,30.14,ENE,57,10.0,19.0,82,0.00,,BKN018,0.00,VWS V15.00,2017-03-25 15:11:00,
2017-03-25 10:16:00,37.8,32.8,30.15,ESE,106,16.0,19.0,82,0.00,,BKN018,0.00,VWS V15.00,2017-03-25 15:16:00,
2017-03-25 10:21:00,37.6,32.6,30.15,ENE,74,11.0,19.0,82,0.00,,BKN018,0.00,VWS V15.00,2017-03-25 15:21:00,
2017-03-25 10:27:00,37.8,32.8,30.15,NE,51,13.0,19.0,82,0.00,,BKN018,0.00,VWS V15.00,2017-03-25 15:27:00,
2017-03-25 10:32:00,37.9,32.9,30.14,ENE,60,6.0,12.0,82,0.00,,BKN018,0.00,VWS V15.00,2017-03-25 15:32:00,
2017-03-25 10:37:00,38.0,32.7,30.14,ENE,70,13.0,17.0,81,0.00,,BKN018,0.00,VWS V15.00,2017-03-25 15:37:00,
2017-03-25 10:42:00,37.9,32.6,30.14,ENE,62,11.0,18.0,81,0.00,,BKN018,0.00,VWS V15.00,2017-03-25 15:42:00,
2017-03-25 10:47:00,37.9,32.6,30.14,ENE,67,14.0,18.0,81,0.00,,BKN018,0.00,VWS V15.00,2017-03-25 15:47:00,
2017-03-25 10:52:00,37.9,32.6,30.14,NE,34,20.0,20.0,81,0.00,,BKN018,0.00,VWS V15.00,2017-03-25 15:52:00,
2017-03-25 10:57:00,38.0,32.7,30.14,ENE,57,5.0,20.0,81,0.00,,BKN018,0.00,VWS V15.00,2017-03-25 15:57:00,
2017-03-25 11:02:00,38.2,32.9,30.14,ENE,57,6.0,13.0,81,0.00,,BKN018,0.00,VWS V15.00,2017-03-25 16:02:00,
2017-03-25 11:07:00,38.5,32.9,30.14,ESE,103,12.0,19.0,80,0.00,,BKN018,0.00,VWS V15.00,2017-03-25 16:07:00,
2017-03-25 11:12:00,38.3,32.4,30.14,East,81,11.0,19.0,79,0.00,,BKN018,0.00,VWS V15.00,2017-03-25 16:12:00,
2017-03-25 11:17:00,38.5,32.6,30.14,NE,54,11.0,19.0,79,0.00,,BKN018,0.00,VWS V15.00,2017-03-25 16:17:00,
2017-03-25 11:22:00,38.6,32.7,30.14,NE,47,7.0,19.0,79,0.00,,BKN018,0.00,VWS V15.00,2017-03-25 16:22:00,
2017-03-25 11:27:00,38.9,33.0,30.14,NE,47,13.0,19.0,79,0.00,,BKN018,0.00,VWS V15.00,2017-03-25 16:27:00,
2017-03-25 11:32:00,39.5,32.9,30.12,NE,44,14.0,19.0,77,0.00,,BKN018,0.00,VWS V15.00,2017-03-25 16:32:00,
2017-03-25 11:37:00,39.5,32.9,30.12,NE,43,6.0,21.0,77,0.00,,BKN018,0.00,VWS V15.00,2017-03-25 16:37:00,
2017-03-25 11:42:00,39.5,32.9,30.12,NE,48,11.0,21.0,77,0.00,,BKN018,0.00,VWS V15.00,2017-03-25 16:42:00,
2017-03-25 11:47:00,39.8,32.9,30.11,NNE,27,9.0,21.0,76,0.00,,BKN018,0.00,VWS V15.00,2017-03-25 16:47:00,
2017-03-25 11:52:00,40.1,32.8,30.11,ENE,65,13.0,21.0,75,0.00,,BKN018,0.00,VWS V15.00,2017-03-25 16:52:00,
2017-03-25 11:57:00,40.2,33.2,30.11,NE,51,11.0,21.0,76,0.00,,BKN018,0.00,VWS V15.00,2017-03-25 16:57:00,
2017-03-25 12:02:00,40.5,32.9,30.11,NE,50,6.0,17.0,74,0.00,,BKN018,0.00,VWS V15.00,2017-03-25 17:02:00,
2017-03-25 12:07:00,40.3,33.0,30.11,ENE,77,4.0,18.0,75,0.00,,BKN018,0.00,VWS V15.00,2017-03-25 17:07:00,
2017-03-25 12:12:00,40.5,32.9,30.11,NE,44,14.0,18.0,74,0.00,,BKN018,0.00,VWS V15.00,2017-03-25 17:12:00,
2017-03-25 12:17:00,40.5,32.9,30.12,NE,53,6.0,18.0,74,0.00,,BKN018,0.00,VWS V15.00,2017-03-25 17:17:00,
2017-03-25 12:22:00,40.6,33.3,30.12,ENE,57,2.0,18.0,75,0.00,,BKN018,0.00,VWS V15.00,2017-03-25 17:22:00,
2017-03-25 12:27:00,40.8,33.2,30.12,East,81,2.0,18.0,74,0.00,,BKN018,0.00,VWS V15.00,2017-03-25 17:27:00,
2017-03-25 12:32:00,40.6,33.0,30.13,ENE,60,15.0,16.0,74,0.00,,BKN018,0.00,VWS V15.00,2017-03-25 17:32:00,
2017-03-25 12:37:00,40.5,33.2,30.13,NE,48,17.0,17.0,75,0.00,,BKN018,0.00,VWS V15.00,2017-03-25 17:37:00,
2017-03-25 12:42:00,40.3,33.0,30.13,NE,47,13.0,18.0,75,0.00,,BKN018,0.00,VWS V15.00,2017-03-25 17:42:00,
2017-03-25 12:47:00,40.2,32.9,30.12,ESE,108,12.0,19.0,75,0.00,,BKN018,0.00,VWS V15.00,2017-03-25 17:47:00,
2017-03-25 12:52:00,40.2,33.2,30.12,ENE,57,10.0,19.0,76,0.00,,BKN018,0.00,VWS V15.00,2017-03-25 17:52:00,
2017-03-25 12:57:00,40.3,33.3,30.12,East,82,16.0,19.0,76,0.00,,BKN018,0.00,VWS V15.00,2017-03-25 17:57:00,
2017-03-25 13:02:00,40.3,33.0,30.11,ENE,64,7.0,13.0,75,0.00,,BKN018,0.00,VWS V15.00,2017-03-25 18:02:00,
2017-03-25 13:07:00,40.3,33.0,30.11,ENE,64,10.0,18.0,75,0.00,,BKN018,0.00,VWS V15.00,2017-03-25 18:07:00,
2017-03-25 13:13:00,40.6,33.3,30.11,NE,44,17.0,18.0,75,0.00,,BKN018,0.00,VWS V15.00,2017-03-25 18:13:00,
2017-03-25 13:18:00,40.6,33.3,30.11,NE,53,10.0,18.0,75,0.00,,BKN018,0.00,VWS V15.00,2017-03-25 18:18:00,
2017-03-25 13:23:00,40.8,33.5,30.11,ENE,67,7.0,18.0,75,0.00,,BKN018,0.00,VWS V15.00,2017-03-25 18:23:00,
2017-03-25 13:28:00,40.8,33.2,30.11,NE,53,11.0,18.0,74,0.00,,BKN018,0.00,VWS V15.00,2017-03-25 18:28:00,
2017-03-25 13:33:00,40.9,33.3,30.10,ENE,61,13.0,20.0,74,0.00,,BKN018,0.00,VWS V15.00,2017-03-25 18:33:00,
2017-03-25 13:38:00,40.8,33.5,30.10,NE,48,11.0,20.0,75,0.00,,BKN018,0.00,VWS V15.00,2017-03-25 18:38:00,
2017-03-25 13:43:00,40.9,33.6,30.10,ENE,61,12.0,20.0,75,0.00,,BKN018,0.00,VWS V15.00,2017-03-25 18:43:00,
2017-03-25 13:48:00,40.9,33.3,30.09,ENE,62,10.0,21.0,74,0.00,,BKN018,0.00,VWS V15.00,2017-03-25 18:48:00,
2017-03-25 13:53:00,40.9,33.3,30.09,ENE,57,14.0,21.0,74,0.00,,BKN018,0.00,VWS V15.00,2017-03-25 18:53:00,
2017-03-25 13:58:00,40.9,33.3,30.09,ESE,103,10.0,21.0,74,0.00,,BKN018,0.00,VWS V15.00,2017-03-25 18:58:00,
2017-03-25 14:03:00,40.9,33.3,30.08,NE,55,11.0,19.0,74,0.00,,BKN018,0.00,VWS V15.00,2017-03-25 19:03:00,
2017-03-25 14:08:00,41.2,33.5,30.08,ESE,105,8.0,19.0,74,0.00,,BKN018,0.00,VWS V15.00,2017-03-25 19:08:00,
2017-03-25 14:13:00,41.3,33.7,30.08,ENE,57,14.0,19.0,74,0.00,,BKN018,0.00,VWS V15.00,2017-03-25 19:13:00,
2017-03-25 14:18:00,41.3,33.7,30.08,East,82,10.0,19.0,74,0.00,,BKN018,0.00,VWS V15.00,2017-03-25 19:18:00,
2017-03-25 14:23:00,41.2,33.5,30.08,ENE,72,9.0,19.0,74,0.00,,BKN018,0.00,VWS V15.00,2017-03-25 19:23:00,
2017-03-25 14:28:00,41.3,33.3,30.08,NE,47,3.0,19.0,73,0.00,,BKN018,0.00,VWS V15.00,2017-03-25 19:28:00,
2017-03-25 14:33:00,41.6,33.9,30.06,East,96,10.0,17.0,74,0.00,,BKN018,0.00,VWS V15.00,2017-03-25 19:33:00,
2017-03-25 14:38:00,41.8,34.1,30.06,ESE,109,10.0,17.0,74,0.00,,BKN018,0.00,VWS V15.00,2017-03-25 19:38:00,
2017-03-25 14:43:00,41.9,33.9,30.06,ENE,72,7.0,18.0,73,0.00,,BKN018,0.00,VWS V15.00,2017-03-25 19:43:00,
2017-03-25 14:48:00,41.9,33.9,30.06,ENE,61,12.0,19.0,73,0.00,,BKN018,0.00,VWS V15.00,2017-03-25 19:48:00,
2017-03-25 14:53:00,41.9,33.9,30.06,NE,53,8.0,19.0,73,0.00,,BKN018,0.00,VWS V15.00,2017-03-25 19:53:00,
2017-03-25 14:58:00,42.2,34.2,30.06,NE,44,7.0,19.0,73,0.00,,BKN018,0.00,VWS V15.00,2017-03-25 19:58:00,
2017-03-25 15:03:00,42.2,33.8,30.06,ENE,62,10.0,17.0,72,0.00,,BKN018,0.00,VWS V15.00,2017-03-25 20:03:00,
2017-03-25 15:08:00,41.9,33.5,30.06,ESE,102,14.0,18.0,72,0.00,,BKN018,0.00,VWS V15.00,2017-03-25 20:08:00,
2017-03-25 15:13:00,41.9,33.5,30.06,ENE,57,17.0,20.0,72,0.00,,BKN018,0.00,VWS V15.00,2017-03-25 20:13:00,
2017-03-25 15:23:00,41.9,33.9,30.05,East,99,7.0,20.0,73,0.00,,BKN018,0.00,VWS V15.00,2017-03-25 20:23:00,
2017-03-25 15:28:00,42.1,34.1,30.05,ENE,58,14.0,20.0,73,0.00,,BKN018,0.00,VWS V15.00,2017-03-25 20:28:00,
2017-03-25 15:33:00,42.1,34.1,30.05,NE,55,9.0,14.0,73,0.00,,BKN018,0.00,VWS V15.00,2017-03-25 20:33:00,
2017-03-25 15:38:00,42.1,33.7,30.05,NE,51,12.0,18.0,72,0.00,,BKN018,0.00,VWS V15.00,2017-03-25 20:38:00,
2017-03-25 15:43:00,42.2,34.2,30.05,East,92,6.0,19.0,73,0.00,,BKN018,0.00,VWS V15.00,2017-03-25 20:43:00,
2017-03-25 15:48:00,42.3,34.3,30.04,East,91,9.0,19.0,73,0.00,,BKN018,0.00,VWS V15.00,2017-03-25 20:48:00,
2017-03-25 15:53:00,42.3,33.9,30.04,East,92,7.0,19.0,72,0.00,,BKN018,0.00,VWS V15.00,2017-03-25 20:53:00,
2017-03-25 15:58:00,42.3,33.9,30.04,East,82,6.0,19.0,72,0.00,,BKN018,0.00,VWS V15.00,2017-03-25 20:58:00,
2017-03-25 16:03:00,42.2,33.8,30.04,ENE,71,4.0,13.0,72,0.00,,BKN018,0.00,VWS V15.00,2017-03-25 21:03:00,
2017-03-25 16:08:00,42.3,33.9,30.04,East,91,6.0,13.0,72,0.00,,BKN018,0.00,VWS V15.00,2017-03-25 21:08:00,
2017-03-25 16:13:00,42.3,33.9,30.04,East,96,10.0,13.0,72,0.00,,BKN018,0.00,VWS V15.00,2017-03-25 21:13:00,
2017-03-25 16:18:00,42.1,33.7,30.04,ESE,102,10.0,18.0,72,0.00,,BKN018,0.00,VWS V15.00,2017-03-25 21:18:00,
2017-03-25 16:23:00,42.1,34.1,30.04,East,91,10.0,19.0,73,0.00,,BKN018,0.00,VWS V15.00,2017-03-25 21:23:00,
2017-03-25 16:28:00,41.9,33.9,30.04,ENE,70,11.0,19.0,73,0.00,,BKN018,0.00,VWS V15.00,2017-03-25 21:28:00,
2017-03-25 16:34:00,41.6,33.6,30.04,East,82,7.0,20.0,73,0.00,,BKN018,0.00,VWS V15.00,2017-03-25 21:34:00,
2017-03-25 16:39:00,41.6,33.9,30.04,East,98,6.0,20.0,74,0.00,,BKN018,0.00,VWS V15.00,2017-03-25 21:39:00,
2017-03-25 16:44:00,41.8,34.1,30.04,ESE,110,11.0,20.0,74,0.00,,BKN018,0.00,VWS V15.00,2017-03-25 21:44:00,
2017-03-25 16:49:00,41.9,34.2,30.03,East,92,6.0,20.0,74,0.00,,BKN018,0.00,VWS V15.00,2017-03-25 21:49:00,
2017-03-25 16:54:00,41.9,34.2,30.03,East,92,8.0,20.0,74,0.00,,BKN018,0.00,VWS V15.00,2017-03-25 21:54:00,
2017-03-25 16:59:00,41.9,33.9,30.03,East,101,12.0,20.0,73,0.00,,BKN018,0.00,VWS V15.00,2017-03-25 21:59:00,
2017-03-25 17:04:00,41.9,34.2,30.03,NE,54,9.0,18.0,74,0.00,,BKN018,0.00,VWS V15.00,2017-03-25 22:04:00,
2017-03-25 17:09:00,41.8,34.1,30.03,East,88,3.0,18.0,74,0.00,,BKN018,0.00,VWS V15.00,2017-03-25 22:09:00,
2017-03-25 17:14:00,41.8,34.1,30.03,NE,54,6.0,18.0,74,0.00,,BKN018,0.00,VWS V15.00,2017-03-25 22:14:00,
2017-03-25 17:19:00,41.8,34.1,30.03,ENE,68,13.0,18.0,74,0.00,,BKN018,0.00,VWS V15.00,2017-03-25 22:19:00,
2017-03-25 17:24:00,41.8,34.1,30.03,ENE,75,7.0,18.0,74,0.00,,BKN018,0.00,VWS V15.00,2017-03-25 22:24:00,
2017-03-25 17:29:00,41.6,33.9,30.03,ESE,115,13.0,18.0,74,0.00,,BKN018,0.00,VWS V15.00,2017-03-25 22:29:00,
2017-03-25 17:34:00,41.6,33.9,30.03,ESE,108,10.0,15.0,74,0.00,,BKN018,0.00,VWS V15.00,2017-03-25 22:34:00,
2017-03-25 17:39:00,41.5,33.8,30.03,East,88,7.0,15.0,74,0.00,,BKN018,0.00,VWS V15.00,2017-03-25 22:39:00,
2017-03-25 17:44:00,41.6,33.9,30.02,East,101,9.0,15.0,74,0.00,,BKN018,0.00,VWS V15.00,2017-03-25 22:44:00,
2017-03-25 17:49:00,41.5,33.8,30.02,ENE,57,7.0,15.0,74,0.00,,BKN018,0.00,VWS V15.00,2017-03-25 22:49:00,
2017-03-25 17:59:00,41.5,34.2,30.03,NE,53,11.0,17.0,75,0.00,,BKN018,0.00,VWS V15.00,2017-03-25 22:59:00,
2017-03-25 18:04:00,41.3,34.3,30.03,NE,51,8.0,13.0,76,0.00,,BKN018,0.00,VWS V15.00,2017-03-25 23:04:00,
2017-03-25 18:09:00,41.2,34.2,30.03,ENE,67,7.0,17.0,76,0.00,,BKN018,0.00,VWS V15.00,2017-03-25 23:09:00,
2017-03-25 18:14:00,41.1,34.5,30.03,NE,55,8.0,17.0,77,0.00,,BKN018,0.00,VWS V15.00,2017-03-25 23:14:00,
2017-03-25 18:19:00,41.1,34.5,30.03,ESE,105,6.0,17.0,77,0.00,,BKN018,0.00,VWS V15.00,2017-03-25 23:19:00,
2017-03-25 18:24:00,40.9,34.6,30.03,NE,53,10.0,17.0,78,0.00,,BKN018,0.00,VWS V15.00,2017-03-25 23:24:00,
2017-03-25 18:29:00,40.8,34.8,30.03,NE,55,11.0,17.0,79,0.00,,BKN018,0.00,VWS V15.00,2017-03-25 23:29:00,
2017-03-25 18:34:00,40.5,35.1,30.03,NE,53,3.0,12.0,81,0.00,,BKN018,0.00,VWS V15.00,2017-03-25 23:34:00,
2017-03-25 18:39:00,40.3,35.6,30.03,ENE,77,5.0,12.0,83,0.00,,BKN018,0.00,VWS V15.00,2017-03-25 23:39:00,
2017-03-25 18:44:00,40.1,36.0,30.03,ENE,64,5.0,12.0,85,0.00,,BKN018,0.00,VWS V15.00,2017-03-25 23:44:00,
2017-03-25 18:49:00,39.9,36.1,30.03,ENE,72,7.0,12.0,86,0.00,,BKN018,0.00,VWS V15.00,2017-03-25 23:49:00,
2017-03-25 18:54:00,39.8,36.2,30.03,ENE,58,7.0,12.0,87,0.00,,BKN018,0.00,VWS V15.00,2017-03-25 23:54:00,
2017-03-25 18:59:00,39.6,36.1,30.03,ENE,68,2.0,12.0,87,0.00,,BKN018,0.00,VWS V15.00,2017-03-25 23:59:00,
2017-03-25 19:04:00,39.5,36.2,30.03,ENE,62,5.0,6.0,88,0.00,,BKN018,0.00,VWS V15.00,2017-03-26 00:04:00,
2017-03-25 19:09:00,39.5,36.5,30.03,NE,55,2.0,8.0,89,0.00,,BKN018,0.00,VWS V15.00,2017-03-26 00:09:00,
2017-03-25 19:14:00,39.3,36.3,30.03,ENE,62,4.0,8.0,89,0.00,,BKN018,0.00,VWS V15.00,2017-03-26 00:14:00,
2017-03-25 19:19:00,39.2,36.5,30.03,ENE,70,3.0,8.0,90,0.00,,BKN018,0.00,VWS V15.00,2017-03-26 00:19:00,
2017-03-25 19:21:00,39.2,36.5,30.03,NE,55,4.0,8.0,90,0.00,,BKN018,0.00,VWS V15.00,2017-03-26 00:21:00,
2017-03-25 19:26:00,39.2,36.5,30.03,NE,55,7.0,10.0,90,0.00,,BKN018,0.00,VWS V15.00,2017-03-26 00:26:00,
2017-03-25 19:31:00,39.1,36.4,30.03,NE,51,10.0,10.0,90,0.00,,BKN018,0.00,VWS V15.00,2017-03-26 00:31:00,